sensor_id;sensor_type;location;lat;lon;timestamp;P1;durP1;ratioP1;P2;durP2;ratioP2
29280;SDS011;25048;49.590;11.026;2023-05-07T00:02:20;4.07;;;2.57;;
29280;SDS011;25048;49.590;11.026;2023-05-07T00:04:48;5.90;;;2.80;;
29280;SDS011;25048;49.590;11.026;2023-05-07T00:07:16;5.40;;;2.87;;
29280;SDS011;25048;49.590;11.026;2023-05-07T00:09:43;4.90;;;2.70;;
29280;SDS011;25048;49.590;11.026;2023-05-07T00:12:11;11.67;;;2.80;;
29280;SDS011;25048;49.590;11.026;2023-05-07T00:14:38;5.73;;;2.63;;
29280;SDS011;25048;49.590;11.026;2023-05-07T00:17:06;5.03;;;2.80;;
29280;SDS011;25048;49.590;11.026;2023-05-07T00:19:33;4.73;;;2.63;;
29280;SDS011;25048;49.590;11.026;2023-05-07T00:22:01;9.00;;;3.03;;
29280;SDS011;25048;49.590;11.026;2023-05-07T00:24:28;5.40;;;2.80;;
29280;SDS011;25048;49.590;11.026;2023-05-07T00:26:56;3.20;;;2.63;;
29280;SDS011;25048;49.590;11.026;2023-05-07T00:29:23;3.23;;;2.60;;
29280;SDS011;25048;49.590;11.026;2023-05-07T00:31:51;5.80;;;2.63;;
29280;SDS011;25048;49.590;11.026;2023-05-07T00:34:20;3.33;;;2.87;;
29280;SDS011;25048;49.590;11.026;2023-05-07T00:36:48;5.07;;;3.20;;
29280;SDS011;25048;49.590;11.026;2023-05-07T00:39:15;5.83;;;3.10;;
29280;SDS011;25048;49.590;11.026;2023-05-07T00:41:43;6.27;;;3.33;;
29280;SDS011;25048;49.590;11.026;2023-05-07T00:44:10;8.50;;;3.30;;
29280;SDS011;25048;49.590;11.026;2023-05-07T00:46:38;2.90;;;2.50;;
29280;SDS011;25048;49.590;11.026;2023-05-07T00:49:06;5.23;;;3.10;;
29280;SDS011;25048;49.590;11.026;2023-05-07T00:51:34;4.07;;;3.17;;
29280;SDS011;25048;49.590;11.026;2023-05-07T00:54:02;6.10;;;2.90;;
29280;SDS011;25048;49.590;11.026;2023-05-07T00:56:30;4.77;;;2.87;;
29280;SDS011;25048;49.590;11.026;2023-05-07T00:58:59;4.97;;;2.53;;
29280;SDS011;25048;49.590;11.026;2023-05-07T01:01:31;5.53;;;3.00;;
29280;SDS011;25048;49.590;11.026;2023-05-07T01:03:59;5.80;;;2.77;;
29280;SDS011;25048;49.590;11.026;2023-05-07T01:06:26;4.40;;;2.70;;
29280;SDS011;25048;49.590;11.026;2023-05-07T01:08:55;4.97;;;3.07;;
29280;SDS011;25048;49.590;11.026;2023-05-07T01:11:24;5.23;;;2.73;;
29280;SDS011;25048;49.590;11.026;2023-05-07T01:13:52;3.57;;;2.80;;
29280;SDS011;25048;49.590;11.026;2023-05-07T01:16:20;5.47;;;2.67;;
29280;SDS011;25048;49.590;11.026;2023-05-07T01:18:48;5.83;;;3.10;;
29280;SDS011;25048;49.590;11.026;2023-05-07T01:21:16;6.33;;;2.80;;
29280;SDS011;25048;49.590;11.026;2023-05-07T01:23:45;3.93;;;2.93;;
29280;SDS011;25048;49.590;11.026;2023-05-07T01:26:13;4.77;;;3.10;;
29280;SDS011;25048;49.590;11.026;2023-05-07T01:28:42;3.77;;;2.67;;
29280;SDS011;25048;49.590;11.026;2023-05-07T01:31:09;3.70;;;2.30;;
29280;SDS011;25048;49.590;11.026;2023-05-07T01:33:38;5.43;;;2.93;;
29280;SDS011;25048;49.590;11.026;2023-05-07T01:36:08;3.27;;;2.30;;
29280;SDS011;25048;49.590;11.026;2023-05-07T01:38:37;5.07;;;2.90;;
29280;SDS011;25048;49.590;11.026;2023-05-07T01:41:06;5.20;;;2.50;;
29280;SDS011;25048;49.590;11.026;2023-05-07T01:43:34;6.17;;;3.03;;
29280;SDS011;25048;49.590;11.026;2023-05-07T01:46:01;3.80;;;2.37;;
29280;SDS011;25048;49.590;11.026;2023-05-07T01:48:30;5.20;;;3.50;;
29280;SDS011;25048;49.590;11.026;2023-05-07T01:50:59;4.47;;;3.13;;
29280;SDS011;25048;49.590;11.026;2023-05-07T01:53:27;5.77;;;3.30;;
29280;SDS011;25048;49.590;11.026;2023-05-07T01:55:55;4.57;;;2.70;;
29280;SDS011;25048;49.590;11.026;2023-05-07T01:58:22;4.37;;;3.00;;
29280;SDS011;25048;49.590;11.026;2023-05-07T02:00:50;4.53;;;2.73;;
29280;SDS011;25048;49.590;11.026;2023-05-07T02:03:17;3.90;;;2.63;;
29280;SDS011;25048;49.590;11.026;2023-05-07T02:05:45;5.23;;;3.40;;
29280;SDS011;25048;49.590;11.026;2023-05-07T02:08:13;5.33;;;2.43;;
29280;SDS011;25048;49.590;11.026;2023-05-07T02:10:40;4.80;;;3.10;;
29280;SDS011;25048;49.590;11.026;2023-05-07T02:13:08;5.07;;;3.13;;
29280;SDS011;25048;49.590;11.026;2023-05-07T02:15:35;4.77;;;3.17;;
29280;SDS011;25048;49.590;11.026;2023-05-07T02:18:07;4.67;;;3.00;;
29280;SDS011;25048;49.590;11.026;2023-05-07T02:20:38;3.97;;;2.80;;
29280;SDS011;25048;49.590;11.026;2023-05-07T02:23:05;4.33;;;3.30;;
29280;SDS011;25048;49.590;11.026;2023-05-07T02:25:33;4.13;;;3.30;;
29280;SDS011;25048;49.590;11.026;2023-05-07T02:28:00;5.30;;;3.00;;
29280;SDS011;25048;49.590;11.026;2023-05-07T02:30:28;3.70;;;3.20;;
29280;SDS011;25048;49.590;11.026;2023-05-07T02:32:55;5.30;;;3.50;;
29280;SDS011;25048;49.590;11.026;2023-05-07T02:35:24;5.03;;;2.93;;
29280;SDS011;25048;49.590;11.026;2023-05-07T02:37:52;7.10;;;3.20;;
29280;SDS011;25048;49.590;11.026;2023-05-07T02:40:19;3.77;;;3.00;;
29280;SDS011;25048;49.590;11.026;2023-05-07T02:42:47;4.27;;;3.10;;
29280;SDS011;25048;49.590;11.026;2023-05-07T02:45:14;7.17;;;3.40;;
29280;SDS011;25048;49.590;11.026;2023-05-07T02:47:42;6.50;;;3.70;;
29280;SDS011;25048;49.590;11.026;2023-05-07T02:50:09;3.90;;;3.13;;
29280;SDS011;25048;49.590;11.026;2023-05-07T02:52:37;4.50;;;3.13;;
29280;SDS011;25048;49.590;11.026;2023-05-07T02:55:06;4.70;;;3.20;;
29280;SDS011;25048;49.590;11.026;2023-05-07T02:57:34;4.20;;;3.13;;
29280;SDS011;25048;49.590;11.026;2023-05-07T03:00:23;5.37;;;4.07;;
29280;SDS011;25048;49.590;11.026;2023-05-07T03:02:46;5.00;;;3.40;;
29280;SDS011;25048;49.590;11.026;2023-05-07T03:05:13;4.90;;;3.73;;
29280;SDS011;25048;49.590;11.026;2023-05-07T03:07:41;4.33;;;3.50;;
29280;SDS011;25048;49.590;11.026;2023-05-07T03:10:10;4.77;;;3.70;;
29280;SDS011;25048;49.590;11.026;2023-05-07T03:12:37;4.23;;;3.30;;
29280;SDS011;25048;49.590;11.026;2023-05-07T03:15:06;5.40;;;3.90;;
29280;SDS011;25048;49.590;11.026;2023-05-07T03:17:34;6.80;;;3.57;;
29280;SDS011;25048;49.590;11.026;2023-05-07T03:20:02;4.70;;;3.40;;
29280;SDS011;25048;49.590;11.026;2023-05-07T03:22:29;5.70;;;3.80;;
29280;SDS011;25048;49.590;11.026;2023-05-07T03:24:57;4.63;;;3.80;;
29280;SDS011;25048;49.590;11.026;2023-05-07T03:27:25;5.87;;;3.63;;
29280;SDS011;25048;49.590;11.026;2023-05-07T03:29:53;5.87;;;4.27;;
29280;SDS011;25048;49.590;11.026;2023-05-07T03:32:20;5.27;;;4.03;;
29280;SDS011;25048;49.590;11.026;2023-05-07T03:34:48;8.03;;;4.10;;
29280;SDS011;25048;49.590;11.026;2023-05-07T03:37:15;4.60;;;3.70;;
29280;SDS011;25048;49.590;11.026;2023-05-07T03:39:43;6.70;;;4.10;;
29280;SDS011;25048;49.590;11.026;2023-05-07T03:42:10;7.63;;;4.57;;
29280;SDS011;25048;49.590;11.026;2023-05-07T03:44:38;7.83;;;4.23;;
29280;SDS011;25048;49.590;11.026;2023-05-07T03:47:05;7.10;;;4.30;;
29280;SDS011;25048;49.590;11.026;2023-05-07T03:49:33;6.87;;;4.60;;
29280;SDS011;25048;49.590;11.026;2023-05-07T03:52:01;5.40;;;4.40;;
29280;SDS011;25048;49.590;11.026;2023-05-07T03:54:29;5.43;;;4.27;;
29280;SDS011;25048;49.590;11.026;2023-05-07T03:56:57;4.87;;;4.30;;
29280;SDS011;25048;49.590;11.026;2023-05-07T03:59:25;6.63;;;4.53;;
29280;SDS011;25048;49.590;11.026;2023-05-07T04:01:52;8.97;;;4.40;;
29280;SDS011;25048;49.590;11.026;2023-05-07T04:04:20;7.03;;;4.47;;
29280;SDS011;25048;49.590;11.026;2023-05-07T04:06:48;7.10;;;4.33;;
29280;SDS011;25048;49.590;11.026;2023-05-07T04:09:15;6.60;;;4.30;;
29280;SDS011;25048;49.590;11.026;2023-05-07T04:11:43;6.60;;;4.57;;
29280;SDS011;25048;49.590;11.026;2023-05-07T04:14:11;7.80;;;4.73;;
29280;SDS011;25048;49.590;11.026;2023-05-07T04:16:38;9.47;;;5.37;;
29280;SDS011;25048;49.590;11.026;2023-05-07T04:19:06;7.03;;;4.70;;
29280;SDS011;25048;49.590;11.026;2023-05-07T04:21:33;6.17;;;4.13;;
29280;SDS011;25048;49.590;11.026;2023-05-07T04:24:02;7.03;;;5.03;;
29280;SDS011;25048;49.590;11.026;2023-05-07T04:26:30;5.77;;;4.47;;
29280;SDS011;25048;49.590;11.026;2023-05-07T04:28:58;6.40;;;5.23;;
29280;SDS011;25048;49.590;11.026;2023-05-07T04:31:26;6.53;;;4.60;;
29280;SDS011;25048;49.590;11.026;2023-05-07T04:33:53;7.10;;;4.63;;
29280;SDS011;25048;49.590;11.026;2023-05-07T04:36:21;6.60;;;4.77;;
29280;SDS011;25048;49.590;11.026;2023-05-07T04:38:48;8.70;;;4.70;;
29280;SDS011;25048;49.590;11.026;2023-05-07T04:41:16;6.80;;;4.63;;
29280;SDS011;25048;49.590;11.026;2023-05-07T04:43:43;7.20;;;4.90;;
29280;SDS011;25048;49.590;11.026;2023-05-07T04:46:11;7.67;;;5.13;;
29280;SDS011;25048;49.590;11.026;2023-05-07T04:48:38;11.70;;;5.33;;
29280;SDS011;25048;49.590;11.026;2023-05-07T04:51:06;8.33;;;5.47;;
29280;SDS011;25048;49.590;11.026;2023-05-07T04:53:33;8.23;;;6.27;;
29280;SDS011;25048;49.590;11.026;2023-05-07T04:56:01;7.27;;;5.40;;
29280;SDS011;25048;49.590;11.026;2023-05-07T04:58:28;8.53;;;4.83;;
29280;SDS011;25048;49.590;11.026;2023-05-07T05:00:57;6.53;;;5.00;;
29280;SDS011;25048;49.590;11.026;2023-05-07T05:03:26;5.27;;;4.77;;
29280;SDS011;25048;49.590;11.026;2023-05-07T05:05:53;7.10;;;5.40;;
29280;SDS011;25048;49.590;11.026;2023-05-07T05:08:21;7.87;;;5.43;;
29280;SDS011;25048;49.590;11.026;2023-05-07T05:10:48;8.40;;;5.97;;
29280;SDS011;25048;49.590;11.026;2023-05-07T05:13:15;14.33;;;7.07;;
29280;SDS011;25048;49.590;11.026;2023-05-07T05:15:43;10.77;;;5.80;;
29280;SDS011;25048;49.590;11.026;2023-05-07T05:18:11;8.03;;;6.03;;
29280;SDS011;25048;49.590;11.026;2023-05-07T05:20:38;9.03;;;5.87;;
29280;SDS011;25048;49.590;11.026;2023-05-07T05:23:07;8.00;;;5.83;;
29280;SDS011;25048;49.590;11.026;2023-05-07T05:25:34;8.33;;;5.70;;
29280;SDS011;25048;49.590;11.026;2023-05-07T05:28:03;8.83;;;5.50;;
29280;SDS011;25048;49.590;11.026;2023-05-07T05:30:30;9.05;;;5.83;;
29280;SDS011;25048;49.590;11.026;2023-05-07T05:32:58;8.77;;;5.97;;
29280;SDS011;25048;49.590;11.026;2023-05-07T05:35:25;8.43;;;6.37;;
29280;SDS011;25048;49.590;11.026;2023-05-07T05:37:53;10.17;;;6.10;;
29280;SDS011;25048;49.590;11.026;2023-05-07T05:40:20;7.50;;;6.27;;
29280;SDS011;25048;49.590;11.026;2023-05-07T05:42:48;11.63;;;6.15;;
29280;SDS011;25048;49.590;11.026;2023-05-07T05:45:15;9.28;;;6.40;;
29280;SDS011;25048;49.590;11.026;2023-05-07T05:47:43;7.93;;;6.17;;
29280;SDS011;25048;49.590;11.026;2023-05-07T05:50:11;7.70;;;6.30;;
29280;SDS011;25048;49.590;11.026;2023-05-07T05:52:38;9.18;;;6.42;;
29280;SDS011;25048;49.590;11.026;2023-05-07T05:55:06;8.85;;;6.33;;
29280;SDS011;25048;49.590;11.026;2023-05-07T05:57:34;9.43;;;5.95;;
29280;SDS011;25048;49.590;11.026;2023-05-07T06:00:02;10.23;;;6.05;;
29280;SDS011;25048;49.590;11.026;2023-05-07T06:02:30;8.78;;;5.80;;
29280;SDS011;25048;49.590;11.026;2023-05-07T06:04:58;8.23;;;5.85;;
29280;SDS011;25048;49.590;11.026;2023-05-07T06:07:25;8.65;;;5.90;;
29280;SDS011;25048;49.590;11.026;2023-05-07T06:09:53;7.37;;;5.20;;
29280;SDS011;25048;49.590;11.026;2023-05-07T06:12:21;10.60;;;6.10;;
29280;SDS011;25048;49.590;11.026;2023-05-07T06:14:48;7.28;;;5.20;;
29280;SDS011;25048;49.590;11.026;2023-05-07T06:17:16;9.10;;;6.17;;
29280;SDS011;25048;49.590;11.026;2023-05-07T06:19:44;7.60;;;5.23;;
29280;SDS011;25048;49.590;11.026;2023-05-07T06:22:11;10.23;;;5.92;;
29280;SDS011;25048;49.590;11.026;2023-05-07T06:24:39;9.95;;;6.03;;
29280;SDS011;25048;49.590;11.026;2023-05-07T06:27:06;9.25;;;5.70;;
29280;SDS011;25048;49.590;11.026;2023-05-07T06:29:34;11.22;;;5.97;;
29280;SDS011;25048;49.590;11.026;2023-05-07T06:32:08;9.70;;;6.12;;
29280;SDS011;25048;49.590;11.026;2023-05-07T06:34:38;8.97;;;5.13;;
29280;SDS011;25048;49.590;11.026;2023-05-07T06:37:06;10.78;;;5.80;;
29280;SDS011;25048;49.590;11.026;2023-05-07T06:39:33;8.00;;;5.50;;
29280;SDS011;25048;49.590;11.026;2023-05-07T06:42:01;7.95;;;5.45;;
29280;SDS011;25048;49.590;11.026;2023-05-07T06:44:30;9.45;;;5.35;;
29280;SDS011;25048;49.590;11.026;2023-05-07T06:46:58;7.03;;;4.83;;
29280;SDS011;25048;49.590;11.026;2023-05-07T06:49:25;8.75;;;6.33;;
29280;SDS011;25048;49.590;11.026;2023-05-07T06:51:53;8.78;;;5.03;;
29280;SDS011;25048;49.590;11.026;2023-05-07T06:54:21;7.12;;;5.78;;
29280;SDS011;25048;49.590;11.026;2023-05-07T06:56:49;8.75;;;5.95;;
29280;SDS011;25048;49.590;11.026;2023-05-07T06:59:17;9.28;;;5.45;;
29280;SDS011;25048;49.590;11.026;2023-05-07T07:01:45;7.05;;;5.17;;
29280;SDS011;25048;49.590;11.026;2023-05-07T07:04:12;8.23;;;5.50;;
29280;SDS011;25048;49.590;11.026;2023-05-07T07:06:40;7.53;;;5.40;;
29280;SDS011;25048;49.590;11.026;2023-05-07T07:09:07;8.60;;;5.12;;
29280;SDS011;25048;49.590;11.026;2023-05-07T07:11:35;8.15;;;5.62;;
29280;SDS011;25048;49.590;11.026;2023-05-07T07:14:02;8.33;;;5.58;;
29280;SDS011;25048;49.590;11.026;2023-05-07T07:16:30;7.60;;;5.37;;
29280;SDS011;25048;49.590;11.026;2023-05-07T07:18:58;7.70;;;5.75;;
29280;SDS011;25048;49.590;11.026;2023-05-07T07:21:25;7.85;;;5.30;;
29280;SDS011;25048;49.590;11.026;2023-05-07T07:23:53;7.28;;;4.65;;
29280;SDS011;25048;49.590;11.026;2023-05-07T07:26:21;5.72;;;5.12;;
29280;SDS011;25048;49.590;11.026;2023-05-07T07:28:48;7.53;;;5.55;;
29280;SDS011;25048;49.590;11.026;2023-05-07T07:31:16;9.60;;;6.05;;
29280;SDS011;25048;49.590;11.026;2023-05-07T07:33:43;6.85;;;5.12;;
29280;SDS011;25048;49.590;11.026;2023-05-07T07:36:11;6.70;;;4.87;;
29280;SDS011;25048;49.590;11.026;2023-05-07T07:38:38;8.15;;;4.62;;
29280;SDS011;25048;49.590;11.026;2023-05-07T07:41:07;6.10;;;5.00;;
29280;SDS011;25048;49.590;11.026;2023-05-07T07:43:35;6.90;;;4.62;;
29280;SDS011;25048;49.590;11.026;2023-05-07T07:46:03;5.47;;;4.37;;
29280;SDS011;25048;49.590;11.026;2023-05-07T07:48:30;8.88;;;5.37;;
29280;SDS011;25048;49.590;11.026;2023-05-07T07:50:58;6.72;;;5.17;;
29280;SDS011;25048;49.590;11.026;2023-05-07T07:53:25;5.28;;;4.67;;
29280;SDS011;25048;49.590;11.026;2023-05-07T07:55:53;9.43;;;5.30;;
29280;SDS011;25048;49.590;11.026;2023-05-07T07:58:20;8.78;;;4.45;;
29280;SDS011;25048;49.590;11.026;2023-05-07T08:00:49;5.97;;;4.35;;
29280;SDS011;25048;49.590;11.026;2023-05-07T08:03:16;5.80;;;4.90;;
29280;SDS011;25048;49.590;11.026;2023-05-07T08:05:45;7.40;;;5.05;;
29280;SDS011;25048;49.590;11.026;2023-05-07T08:08:13;6.60;;;4.37;;
29280;SDS011;25048;49.590;11.026;2023-05-07T08:10:40;6.45;;;5.15;;
29280;SDS011;25048;49.590;11.026;2023-05-07T08:13:08;8.23;;;4.90;;
29280;SDS011;25048;49.590;11.026;2023-05-07T08:15:35;7.25;;;5.30;;
29280;SDS011;25048;49.590;11.026;2023-05-07T08:18:03;12.00;;;5.03;;
29280;SDS011;25048;49.590;11.026;2023-05-07T08:20:30;6.12;;;4.30;;
29280;SDS011;25048;49.590;11.026;2023-05-07T08:22:59;7.28;;;4.60;;
29280;SDS011;25048;49.590;11.026;2023-05-07T08:25:26;8.00;;;4.10;;
29280;SDS011;25048;49.590;11.026;2023-05-07T08:27:54;5.05;;;4.12;;
29280;SDS011;25048;49.590;11.026;2023-05-07T08:30:21;5.78;;;4.58;;
29280;SDS011;25048;49.590;11.026;2023-05-07T08:32:49;6.70;;;4.90;;
29280;SDS011;25048;49.590;11.026;2023-05-07T08:35:17;5.55;;;4.62;;
29280;SDS011;25048;49.590;11.026;2023-05-07T08:37:44;6.35;;;4.50;;
29280;SDS011;25048;49.590;11.026;2023-05-07T08:40:12;4.87;;;4.25;;
29280;SDS011;25048;49.590;11.026;2023-05-07T08:42:39;7.47;;;4.50;;
29280;SDS011;25048;49.590;11.026;2023-05-07T08:45:08;6.17;;;4.65;;
29280;SDS011;25048;49.590;11.026;2023-05-07T08:47:42;6.28;;;4.58;;
29280;SDS011;25048;49.590;11.026;2023-05-07T08:50:11;7.30;;;4.47;;
29280;SDS011;25048;49.590;11.026;2023-05-07T08:52:39;4.95;;;4.22;;
29280;SDS011;25048;49.590;11.026;2023-05-07T08:55:07;5.42;;;4.30;;
29280;SDS011;25048;49.590;11.026;2023-05-07T08:57:36;5.60;;;4.20;;
29280;SDS011;25048;49.590;11.026;2023-05-07T09:00:04;5.42;;;4.17;;
29280;SDS011;25048;49.590;11.026;2023-05-07T09:02:34;5.33;;;4.33;;
29280;SDS011;25048;49.590;11.026;2023-05-07T09:05:02;4.40;;;3.92;;
29280;SDS011;25048;49.590;11.026;2023-05-07T09:07:30;4.67;;;4.20;;
29280;SDS011;25048;49.590;11.026;2023-05-07T09:09:58;4.67;;;3.83;;
29280;SDS011;25048;49.590;11.026;2023-05-07T09:12:27;5.78;;;4.03;;
29280;SDS011;25048;49.590;11.026;2023-05-07T09:14:55;6.65;;;4.03;;
29280;SDS011;25048;49.590;11.026;2023-05-07T09:17:22;9.68;;;3.83;;
29280;SDS011;25048;49.590;11.026;2023-05-07T09:19:50;5.78;;;4.50;;
29280;SDS011;25048;49.590;11.026;2023-05-07T09:22:19;5.92;;;4.03;;
29280;SDS011;25048;49.590;11.026;2023-05-07T09:24:52;6.08;;;4.67;;
29280;SDS011;25048;49.590;11.026;2023-05-07T09:27:17;4.95;;;4.45;;
29280;SDS011;25048;49.590;11.026;2023-05-07T09:29:44;5.87;;;3.90;;
29280;SDS011;25048;49.590;11.026;2023-05-07T09:32:12;4.62;;;3.85;;
29280;SDS011;25048;49.590;11.026;2023-05-07T09:37:30;7.10;;;4.15;;
29280;SDS011;25048;49.590;11.026;2023-05-07T09:39:58;7.60;;;3.95;;
29280;SDS011;25048;49.590;11.026;2023-05-07T09:42:25;3.85;;;3.37;;
29280;SDS011;25048;49.590;11.026;2023-05-07T09:44:53;5.10;;;3.50;;
29280;SDS011;25048;49.590;11.026;2023-05-07T09:47:22;5.53;;;3.17;;
29280;SDS011;25048;49.590;11.026;2023-05-07T09:49:53;5.35;;;3.80;;
29280;SDS011;25048;49.590;11.026;2023-05-07T09:52:22;7.15;;;3.85;;
29280;SDS011;25048;49.590;11.026;2023-05-07T09:54:50;5.12;;;3.98;;
29280;SDS011;25048;49.590;11.026;2023-05-07T09:57:20;10.03;;;4.45;;
29280;SDS011;25048;49.590;11.026;2023-05-07T09:59:50;7.90;;;3.85;;
29280;SDS011;25048;49.590;11.026;2023-05-07T10:02:20;5.28;;;3.92;;
29280;SDS011;25048;49.590;11.026;2023-05-07T10:04:48;4.33;;;3.77;;
29280;SDS011;25048;49.590;11.026;2023-05-07T10:07:16;6.15;;;4.20;;
29280;SDS011;25048;49.590;11.026;2023-05-07T10:09:43;4.47;;;3.45;;
29280;SDS011;25048;49.590;11.026;2023-05-07T10:12:12;3.50;;;3.20;;
29280;SDS011;25048;49.590;11.026;2023-05-07T10:14:40;7.10;;;4.30;;
29280;SDS011;25048;49.590;11.026;2023-05-07T10:17:07;5.00;;;3.77;;
29280;SDS011;25048;49.590;11.026;2023-05-07T10:19:37;4.70;;;3.83;;
29280;SDS011;25048;49.590;11.026;2023-05-07T10:22:06;5.62;;;3.52;;
29280;SDS011;25048;49.590;11.026;2023-05-07T10:24:36;6.65;;;3.80;;
29280;SDS011;25048;49.590;11.026;2023-05-07T10:27:05;5.17;;;3.33;;
29280;SDS011;25048;49.590;11.026;2023-05-07T10:29:45;6.17;;;3.80;;
29280;SDS011;25048;49.590;11.026;2023-05-07T10:32:39;5.30;;;3.60;;
29280;SDS011;25048;49.590;11.026;2023-05-07T10:35:14;5.67;;;3.50;;
29280;SDS011;25048;49.590;11.026;2023-05-07T10:37:42;5.42;;;4.08;;
29280;SDS011;25048;49.590;11.026;2023-05-07T10:40:11;6.50;;;3.55;;
29280;SDS011;25048;49.590;11.026;2023-05-07T10:42:52;4.95;;;3.42;;
29280;SDS011;25048;49.590;11.026;2023-05-07T10:45:22;3.95;;;3.37;;
29280;SDS011;25048;49.590;11.026;2023-05-07T10:48:34;3.75;;;3.22;;
29280;SDS011;25048;49.590;11.026;2023-05-07T10:50:42;3.35;;;2.92;;
29280;SDS011;25048;49.590;11.026;2023-05-07T10:55:51;3.45;;;3.00;;
29280;SDS011;25048;49.590;11.026;2023-05-07T10:58:29;4.28;;;3.10;;
29280;SDS011;25048;49.590;11.026;2023-05-07T11:00:57;5.00;;;3.30;;
29280;SDS011;25048;49.590;11.026;2023-05-07T11:03:27;2.75;;;2.55;;
29280;SDS011;25048;49.590;11.026;2023-05-07T11:06:08;4.22;;;3.17;;
29280;SDS011;25048;49.590;11.026;2023-05-07T11:14:13;3.83;;;2.90;;
29280;SDS011;25048;49.590;11.026;2023-05-07T11:16:41;3.80;;;2.75;;
29280;SDS011;25048;49.590;11.026;2023-05-07T11:19:10;3.20;;;2.90;;
29280;SDS011;25048;49.590;11.026;2023-05-07T11:21:38;7.05;;;2.77;;
29280;SDS011;25048;49.590;11.026;2023-05-07T11:24:07;7.65;;;4.05;;
29280;SDS011;25048;49.590;11.026;2023-05-07T11:26:43;4.22;;;3.45;;
29280;SDS011;25048;49.590;11.026;2023-05-07T11:29:16;4.10;;;3.08;;
29280;SDS011;25048;49.590;11.026;2023-05-07T11:31:52;3.02;;;2.67;;
29280;SDS011;25048;49.590;11.026;2023-05-07T11:34:22;3.85;;;2.10;;
29280;SDS011;25048;49.590;11.026;2023-05-07T11:36:50;3.27;;;2.83;;
29280;SDS011;25048;49.590;11.026;2023-05-07T11:39:31;3.67;;;2.92;;
29280;SDS011;25048;49.590;11.026;2023-05-07T11:42:00;3.47;;;2.47;;
29280;SDS011;25048;49.590;11.026;2023-05-07T11:44:45;6.28;;;1.95;;
29280;SDS011;25048;49.590;11.026;2023-05-07T11:47:16;6.75;;;2.72;;
29280;SDS011;25048;49.590;11.026;2023-05-07T11:49:50;3.87;;;2.35;;
29280;SDS011;25048;49.590;11.026;2023-05-07T11:52:14;2.87;;;2.00;;
29280;SDS011;25048;49.590;11.026;2023-05-07T11:54:48;2.85;;;2.42;;
29280;SDS011;25048;49.590;11.026;2023-05-07T11:57:16;2.50;;;2.30;;
29280;SDS011;25048;49.590;11.026;2023-05-07T11:59:43;6.33;;;2.60;;
29280;SDS011;25048;49.590;11.026;2023-05-07T12:02:13;5.92;;;3.20;;
29280;SDS011;25048;49.590;11.026;2023-05-07T12:04:41;5.25;;;2.60;;
29280;SDS011;25048;49.590;11.026;2023-05-07T12:07:12;3.65;;;2.80;;
29280;SDS011;25048;49.590;11.026;2023-05-07T12:09:41;2.98;;;2.67;;
29280;SDS011;25048;49.590;11.026;2023-05-07T12:12:09;5.25;;;2.90;;
29280;SDS011;25048;49.590;11.026;2023-05-07T12:14:40;3.15;;;2.83;;
29280;SDS011;25048;49.590;11.026;2023-05-07T12:17:09;5.15;;;2.75;;
29280;SDS011;25048;49.590;11.026;2023-05-07T12:19:38;14.63;;;3.55;;
29280;SDS011;25048;49.590;11.026;2023-05-07T12:22:08;2.75;;;2.52;;
29280;SDS011;25048;49.590;11.026;2023-05-07T12:27:15;2.52;;;2.33;;
29280;SDS011;25048;49.590;11.026;2023-05-07T12:29:44;3.30;;;2.65;;
29280;SDS011;25048;49.590;11.026;2023-05-07T12:32:19;4.25;;;2.42;;
29280;SDS011;25048;49.590;11.026;2023-05-07T12:34:43;3.08;;;2.58;;
29280;SDS011;25048;49.590;11.026;2023-05-07T12:37:11;2.75;;;2.37;;
29280;SDS011;25048;49.590;11.026;2023-05-07T12:39:48;4.03;;;2.40;;
29280;SDS011;25048;49.590;11.026;2023-05-07T12:42:19;3.75;;;2.60;;
29280;SDS011;25048;49.590;11.026;2023-05-07T12:44:50;3.33;;;2.67;;
29280;SDS011;25048;49.590;11.026;2023-05-07T12:47:18;2.98;;;2.62;;
29280;SDS011;25048;49.590;11.026;2023-05-07T12:49:47;3.00;;;2.65;;
29280;SDS011;25048;49.590;11.026;2023-05-07T12:52:14;3.40;;;2.08;;
29280;SDS011;25048;49.590;11.026;2023-05-07T12:54:42;6.12;;;2.65;;
29280;SDS011;25048;49.590;11.026;2023-05-07T12:57:11;3.12;;;2.83;;
29280;SDS011;25048;49.590;11.026;2023-05-07T12:59:39;3.50;;;2.35;;
29280;SDS011;25048;49.590;11.026;2023-05-07T13:02:08;2.60;;;2.17;;
29280;SDS011;25048;49.590;11.026;2023-05-07T13:04:35;3.42;;;2.27;;
29280;SDS011;25048;49.590;11.026;2023-05-07T13:07:03;3.77;;;2.00;;
29280;SDS011;25048;49.590;11.026;2023-05-07T13:09:31;2.45;;;2.17;;
29280;SDS011;25048;49.590;11.026;2023-05-07T13:11:58;12.07;;;2.47;;
29280;SDS011;25048;49.590;11.026;2023-05-07T13:14:28;7.15;;;2.72;;
29280;SDS011;25048;49.590;11.026;2023-05-07T13:16:56;3.37;;;2.60;;
29280;SDS011;25048;49.590;11.026;2023-05-07T13:19:23;5.90;;;3.00;;
29280;SDS011;25048;49.590;11.026;2023-05-07T13:21:51;2.95;;;2.30;;
29280;SDS011;25048;49.590;11.026;2023-05-07T13:24:18;3.22;;;2.65;;
29280;SDS011;25048;49.590;11.026;2023-05-07T13:26:46;2.70;;;1.95;;
29280;SDS011;25048;49.590;11.026;2023-05-07T13:29:14;3.50;;;2.22;;
29280;SDS011;25048;49.590;11.026;2023-05-07T13:31:41;2.47;;;2.05;;
29280;SDS011;25048;49.590;11.026;2023-05-07T13:34:09;4.60;;;2.05;;
29280;SDS011;25048;49.590;11.026;2023-05-07T13:36:37;2.40;;;2.08;;
29280;SDS011;25048;49.590;11.026;2023-05-07T13:39:05;2.65;;;2.15;;
29280;SDS011;25048;49.590;11.026;2023-05-07T13:41:33;3.67;;;2.10;;
29280;SDS011;25048;49.590;11.026;2023-05-07T13:44:00;2.47;;;2.27;;
29280;SDS011;25048;49.590;11.026;2023-05-07T13:46:28;4.20;;;1.98;;
29280;SDS011;25048;49.590;11.026;2023-05-07T13:48:55;2.42;;;2.20;;
29280;SDS011;25048;49.590;11.026;2023-05-07T13:51:23;3.25;;;2.02;;
29280;SDS011;25048;49.590;11.026;2023-05-07T13:53:51;3.37;;;2.52;;
29280;SDS011;25048;49.590;11.026;2023-05-07T13:56:20;3.30;;;2.27;;
29280;SDS011;25048;49.590;11.026;2023-05-07T13:58:47;2.40;;;2.20;;
29280;SDS011;25048;49.590;11.026;2023-05-07T14:01:15;2.87;;;2.02;;
29280;SDS011;25048;49.590;11.026;2023-05-07T14:03:42;2.52;;;1.90;;
29280;SDS011;25048;49.590;11.026;2023-05-07T14:06:10;2.60;;;1.92;;
29280;SDS011;25048;49.590;11.026;2023-05-07T14:08:38;2.25;;;1.90;;
29280;SDS011;25048;49.590;11.026;2023-05-07T14:11:05;2.10;;;1.90;;
29280;SDS011;25048;49.590;11.026;2023-05-07T14:13:33;4.03;;;1.95;;
29280;SDS011;25048;49.590;11.026;2023-05-07T14:16:00;3.47;;;1.90;;
29280;SDS011;25048;49.590;11.026;2023-05-07T14:18:28;3.10;;;2.00;;
29280;SDS011;25048;49.590;11.026;2023-05-07T14:20:56;2.98;;;2.40;;
29280;SDS011;25048;49.590;11.026;2023-05-07T14:23:23;3.17;;;1.87;;
29280;SDS011;25048;49.590;11.026;2023-05-07T14:25:52;3.50;;;1.95;;
29280;SDS011;25048;49.590;11.026;2023-05-07T14:28:20;4.15;;;2.50;;
29280;SDS011;25048;49.590;11.026;2023-05-07T14:30:48;3.40;;;2.05;;
29280;SDS011;25048;49.590;11.026;2023-05-07T14:33:17;3.75;;;2.22;;
29280;SDS011;25048;49.590;11.026;2023-05-07T14:35:44;4.60;;;2.08;;
29280;SDS011;25048;49.590;11.026;2023-05-07T14:38:14;3.15;;;2.10;;
29280;SDS011;25048;49.590;11.026;2023-05-07T14:40:41;8.20;;;1.55;;
29280;SDS011;25048;49.590;11.026;2023-05-07T14:43:09;1.72;;;1.62;;
29280;SDS011;25048;49.590;11.026;2023-05-07T14:45:36;2.58;;;2.35;;
29280;SDS011;25048;49.590;11.026;2023-05-07T14:48:04;4.87;;;1.92;;
29280;SDS011;25048;49.590;11.026;2023-05-07T14:50:32;2.15;;;1.62;;
29280;SDS011;25048;49.590;11.026;2023-05-07T14:52:59;2.37;;;1.75;;
29280;SDS011;25048;49.590;11.026;2023-05-07T14:55:27;5.35;;;2.25;;